sensor_id;sensor_type;location;lat;lon;timestamp;temperature;humidity
64634;DHT22;51043;52.406;9.690;2023-12-28T00:00:33;8.50;99.90
64634;DHT22;51043;52.406;9.690;2023-12-28T00:03:03;8.40;99.90
64634;DHT22;51043;52.406;9.690;2023-12-28T00:05:33;8.40;99.90
64634;DHT22;51043;52.406;9.690;2023-12-28T00:08:05;8.30;99.90
64634;DHT22;51043;52.406;9.690;2023-12-28T00:10:36;8.30;99.90
64634;DHT22;51043;52.406;9.690;2023-12-28T00:13:05;8.30;99.90
64634;DHT22;51043;52.406;9.690;2023-12-28T00:15:35;8.30;99.90
64634;DHT22;51043;52.406;9.690;2023-12-28T00:18:04;8.40;99.90
64634;DHT22;51043;52.406;9.690;2023-12-28T00:20:32;8.40;99.90
64634;DHT22;51043;52.406;9.690;2023-12-28T00:23:01;8.60;99.90
64634;DHT22;51043;52.406;9.690;2023-12-28T00:25:31;8.70;99.90
64634;DHT22;51043;52.406;9.690;2023-12-28T00:28:00;8.80;99.90
64634;DHT22;51043;52.406;9.690;2023-12-28T00:30:28;8.80;99.90
64634;DHT22;51043;52.406;9.690;2023-12-28T00:32:57;8.90;99.90
64634;DHT22;51043;52.406;9.690;2023-12-28T00:35:26;8.90;99.90
64634;DHT22;51043;52.406;9.690;2023-12-28T00:37:54;9.10;99.90
64634;DHT22;51043;52.406;9.690;2023-12-28T00:40:22;9.10;99.90
64634;DHT22;51043;52.406;9.690;2023-12-28T00:42:52;9.20;99.90
64634;DHT22;51043;52.406;9.690;2023-12-28T00:45:20;9.30;99.90
64634;DHT22;51043;52.406;9.690;2023-12-28T00:47:49;9.20;99.90
64634;DHT22;51043;52.406;9.690;2023-12-28T00:50:19;9.20;99.90
64634;DHT22;51043;52.406;9.690;2023-12-28T00:52:47;9.10;99.90
64634;DHT22;51043;52.406;9.690;2023-12-28T00:55:15;8.80;99.90
64634;DHT22;51043;52.406;9.690;2023-12-28T00:57:43;8.50;99.90
64634;DHT22;51043;52.406;9.690;2023-12-28T01:00:14;8.40;99.90
64634;DHT22;51043;52.406;9.690;2023-12-28T01:02:42;8.30;99.90
64634;DHT22;51043;52.406;9.690;2023-12-28T01:05:15;8.10;99.90
64634;DHT22;51043;52.406;9.690;2023-12-28T01:07:46;8.00;99.90
64634;DHT22;51043;52.406;9.690;2023-12-28T01:10:16;7.90;99.90
64634;DHT22;51043;52.406;9.690;2023-12-28T01:12:45;7.80;99.90
64634;DHT22;51043;52.406;9.690;2023-12-28T01:15:15;7.80;99.90
64634;DHT22;51043;52.406;9.690;2023-12-28T01:17:44;7.80;99.90
64634;DHT22;51043;52.406;9.690;2023-12-28T01:20:13;7.80;99.90
64634;DHT22;51043;52.406;9.690;2023-12-28T01:22:43;7.80;99.90
64634;DHT22;51043;52.406;9.690;2023-12-28T01:25:11;7.80;99.90
64634;DHT22;51043;52.406;9.690;2023-12-28T01:27:40;7.80;99.90
64634;DHT22;51043;52.406;9.690;2023-12-28T01:30:08;7.90;99.90
64634;DHT22;51043;52.406;9.690;2023-12-28T01:32:38;7.90;99.90
64634;DHT22;51043;52.406;9.690;2023-12-28T01:35:07;7.90;99.90
64634;DHT22;51043;52.406;9.690;2023-12-28T01:37:35;8.00;99.90
64634;DHT22;51043;52.406;9.690;2023-12-28T01:40:04;8.00;99.90
64634;DHT22;51043;52.406;9.690;2023-12-28T01:42:36;8.10;99.90
64634;DHT22;51043;52.406;9.690;2023-12-28T01:45:06;8.10;99.90
64634;DHT22;51043;52.406;9.690;2023-12-28T01:47:35;8.20;99.90
64634;DHT22;51043;52.406;9.690;2023-12-28T01:50:06;8.30;99.90
64634;DHT22;51043;52.406;9.690;2023-12-28T01:52:37;8.30;99.90
64634;DHT22;51043;52.406;9.690;2023-12-28T01:55:07;8.20;99.90
64634;DHT22;51043;52.406;9.690;2023-12-28T01:57:37;8.20;99.90
64634;DHT22;51043;52.406;9.690;2023-12-28T02:00:06;8.30;99.90
64634;DHT22;51043;52.406;9.690;2023-12-28T02:02:41;8.30;99.90
64634;DHT22;51043;52.406;9.690;2023-12-28T02:05:11;8.30;99.90
64634;DHT22;51043;52.406;9.690;2023-12-28T02:07:40;8.30;99.90
64634;DHT22;51043;52.406;9.690;2023-12-28T02:10:08;8.40;99.90
64634;DHT22;51043;52.406;9.690;2023-12-28T02:12:38;8.40;99.90
64634;DHT22;51043;52.406;9.690;2023-12-28T02:15:08;8.50;99.90
64634;DHT22;51043;52.406;9.690;2023-12-28T02:17:42;8.50;99.90
64634;DHT22;51043;52.406;9.690;2023-12-28T02:20:13;8.50;99.90
64634;DHT22;51043;52.406;9.690;2023-12-28T02:22:43;8.50;99.90
64634;DHT22;51043;52.406;9.690;2023-12-28T02:25:13;8.50;99.90
64634;DHT22;51043;52.406;9.690;2023-12-28T02:27:42;8.60;99.90
64634;DHT22;51043;52.406;9.690;2023-12-28T02:30:16;8.60;99.90
64634;DHT22;51043;52.406;9.690;2023-12-28T02:32:54;8.60;99.90
64634;DHT22;51043;52.406;9.690;2023-12-28T02:35:29;8.60;99.90
64634;DHT22;51043;52.406;9.690;2023-12-28T02:38:03;8.60;99.90
64634;DHT22;51043;52.406;9.690;2023-12-28T02:40:37;8.60;99.90
64634;DHT22;51043;52.406;9.690;2023-12-28T02:43:05;8.60;99.90
64634;DHT22;51043;52.406;9.690;2023-12-28T02:45:34;8.70;99.90
64634;DHT22;51043;52.406;9.690;2023-12-28T02:48:07;8.70;99.90
64634;DHT22;51043;52.406;9.690;2023-12-28T02:50:36;8.70;99.90
64634;DHT22;51043;52.406;9.690;2023-12-28T02:53:04;8.70;99.90
64634;DHT22;51043;52.406;9.690;2023-12-28T02:55:36;8.80;99.90
64634;DHT22;51043;52.406;9.690;2023-12-28T02:58:04;8.90;99.90
64634;DHT22;51043;52.406;9.690;2023-12-28T03:00:33;8.90;99.90
64634;DHT22;51043;52.406;9.690;2023-12-28T03:03:02;9.00;99.90
64634;DHT22;51043;52.406;9.690;2023-12-28T03:05:30;8.90;99.90
64634;DHT22;51043;52.406;9.690;2023-12-28T03:07:59;8.90;99.90
64634;DHT22;51043;52.406;9.690;2023-12-28T03:10:27;9.00;99.90
64634;DHT22;51043;52.406;9.690;2023-12-28T03:12:57;9.00;99.90
64634;DHT22;51043;52.406;9.690;2023-12-28T03:15:25;9.00;99.90
64634;DHT22;51043;52.406;9.690;2023-12-28T03:17:55;9.00;99.90
64634;DHT22;51043;52.406;9.690;2023-12-28T03:20:25;9.10;99.90
64634;DHT22;51043;52.406;9.690;2023-12-28T03:22:53;9.10;99.90
64634;DHT22;51043;52.406;9.690;2023-12-28T03:25:22;9.10;99.90
64634;DHT22;51043;52.406;9.690;2023-12-28T03:27:50;9.10;99.90
64634;DHT22;51043;52.406;9.690;2023-12-28T03:30:20;9.10;99.90
64634;DHT22;51043;52.406;9.690;2023-12-28T03:32:48;9.10;99.90
64634;DHT22;51043;52.406;9.690;2023-12-28T03:35:17;9.20;99.90
64634;DHT22;51043;52.406;9.690;2023-12-28T03:37:45;9.20;99.90
64634;DHT22;51043;52.406;9.690;2023-12-28T03:40:14;9.20;99.90
64634;DHT22;51043;52.406;9.690;2023-12-28T03:42:43;9.20;99.90
64634;DHT22;51043;52.406;9.690;2023-12-28T03:45:12;9.30;99.90
64634;DHT22;51043;52.406;9.690;2023-12-28T03:47:42;9.30;99.90
64634;DHT22;51043;52.406;9.690;2023-12-28T03:50:10;9.30;99.90
64634;DHT22;51043;52.406;9.690;2023-12-28T03:52:38;9.40;99.90
64634;DHT22;51043;52.406;9.690;2023-12-28T03:55:07;9.40;99.90
64634;DHT22;51043;52.406;9.690;2023-12-28T03:57:37;9.50;99.90
64634;DHT22;51043;52.406;9.690;2023-12-28T04:00:07;9.40;99.90
64634;DHT22;51043;52.406;9.690;2023-12-28T04:02:42;9.40;99.90
64634;DHT22;51043;52.406;9.690;2023-12-28T04:05:10;9.50;99.90
64634;DHT22;51043;52.406;9.690;2023-12-28T04:07:40;9.50;99.90
64634;DHT22;51043;52.406;9.690;2023-12-28T04:10:10;9.50;99.90
64634;DHT22;51043;52.406;9.690;2023-12-28T04:12:40;9.50;99.90
64634;DHT22;51043;52.406;9.690;2023-12-28T04:15:10;9.50;99.90
64634;DHT22;51043;52.406;9.690;2023-12-28T04:17:44;9.50;99.90
64634;DHT22;51043;52.406;9.690;2023-12-28T04:20:13;9.50;99.90
64634;DHT22;51043;52.406;9.690;2023-12-28T04:22:42;9.50;99.90
64634;DHT22;51043;52.406;9.690;2023-12-28T04:25:12;9.50;99.90
64634;DHT22;51043;52.406;9.690;2023-12-28T04:27:45;9.40;99.90
64634;DHT22;51043;52.406;9.690;2023-12-28T04:30:17;9.50;99.90
64634;DHT22;51043;52.406;9.690;2023-12-28T04:32:47;9.50;99.90
64634;DHT22;51043;52.406;9.690;2023-12-28T04:35:17;9.50;99.90
64634;DHT22;51043;52.406;9.690;2023-12-28T04:37:45;9.50;99.90
64634;DHT22;51043;52.406;9.690;2023-12-28T04:40:14;9.50;99.90
64634;DHT22;51043;52.406;9.690;2023-12-28T04:42:42;9.50;99.90
64634;DHT22;51043;52.406;9.690;2023-12-28T04:45:10;9.50;99.90
64634;DHT22;51043;52.406;9.690;2023-12-28T04:47:39;9.50;99.90
64634;DHT22;51043;52.406;9.690;2023-12-28T04:50:11;9.50;99.90
64634;DHT22;51043;52.406;9.690;2023-12-28T04:52:39;9.50;99.90
64634;DHT22;51043;52.406;9.690;2023-12-28T04:55:08;9.50;99.90
64634;DHT22;51043;52.406;9.690;2023-12-28T04:57:36;9.50;99.90
64634;DHT22;51043;52.406;9.690;2023-12-28T05:00:06;9.40;99.90
64634;DHT22;51043;52.406;9.690;2023-12-28T05:02:35;9.40;99.90
64634;DHT22;51043;52.406;9.690;2023-12-28T05:05:05;9.30;99.90
64634;DHT22;51043;52.406;9.690;2023-12-28T05:07:36;9.30;99.90
64634;DHT22;51043;52.406;9.690;2023-12-28T05:10:05;9.30;99.90
64634;DHT22;51043;52.406;9.690;2023-12-28T05:12:34;9.30;99.90
64634;DHT22;51043;52.406;9.690;2023-12-28T05:15:09;9.30;99.90
64634;DHT22;51043;52.406;9.690;2023-12-28T05:17:40;9.30;99.90
64634;DHT22;51043;52.406;9.690;2023-12-28T05:20:09;9.30;99.90
64634;DHT22;51043;52.406;9.690;2023-12-28T05:22:39;9.30;99.90
64634;DHT22;51043;52.406;9.690;2023-12-28T05:25:07;9.40;99.90
64634;DHT22;51043;52.406;9.690;2023-12-28T05:27:37;9.50;99.90
64634;DHT22;51043;52.406;9.690;2023-12-28T05:30:07;9.40;99.90
64634;DHT22;51043;52.406;9.690;2023-12-28T05:32:36;9.50;99.90
64634;DHT22;51043;52.406;9.690;2023-12-28T05:35:05;9.40;99.90
64634;DHT22;51043;52.406;9.690;2023-12-28T05:37:34;9.40;99.90
64634;DHT22;51043;52.406;9.690;2023-12-28T05:40:11;9.40;99.90
64634;DHT22;51043;52.406;9.690;2023-12-28T05:42:40;9.50;99.90
64634;DHT22;51043;52.406;9.690;2023-12-28T05:45:11;9.50;99.90
64634;DHT22;51043;52.406;9.690;2023-12-28T05:47:40;9.50;99.90
64634;DHT22;51043;52.406;9.690;2023-12-28T05:50:09;9.50;99.90
64634;DHT22;51043;52.406;9.690;2023-12-28T05:52:38;9.60;99.90
64634;DHT22;51043;52.406;9.690;2023-12-28T05:55:07;9.60;99.90
64634;DHT22;51043;52.406;9.690;2023-12-28T05:57:36;9.70;99.90
64634;DHT22;51043;52.406;9.690;2023-12-28T06:00:08;9.70;99.90
64634;DHT22;51043;52.406;9.690;2023-12-28T06:02:39;9.80;99.90
64634;DHT22;51043;52.406;9.690;2023-12-28T06:05:08;9.80;99.90
64634;DHT22;51043;52.406;9.690;2023-12-28T06:07:36;9.80;99.90
64634;DHT22;51043;52.406;9.690;2023-12-28T06:10:06;9.90;99.90
64634;DHT22;51043;52.406;9.690;2023-12-28T06:12:39;10.00;99.90
64634;DHT22;51043;52.406;9.690;2023-12-28T06:15:10;10.10;99.90
64634;DHT22;51043;52.406;9.690;2023-12-28T06:17:38;10.00;99.90
64634;DHT22;51043;52.406;9.690;2023-12-28T06:20:07;10.00;99.90
64634;DHT22;51043;52.406;9.690;2023-12-28T06:22:37;10.00;99.90
64634;DHT22;51043;52.406;9.690;2023-12-28T06:25:06;9.90;99.90
64634;DHT22;51043;52.406;9.690;2023-12-28T06:27:35;9.80;99.90
64634;DHT22;51043;52.406;9.690;2023-12-28T06:30:07;9.80;99.90
64634;DHT22;51043;52.406;9.690;2023-12-28T06:32:35;9.70;99.90
64634;DHT22;51043;52.406;9.690;2023-12-28T06:35:06;9.80;99.90
64634;DHT22;51043;52.406;9.690;2023-12-28T06:37:34;9.80;99.90
64634;DHT22;51043;52.406;9.690;2023-12-28T06:40:03;9.70;99.90
64634;DHT22;51043;52.406;9.690;2023-12-28T06:42:32;9.70;99.90
64634;DHT22;51043;52.406;9.690;2023-12-28T06:45:00;9.70;99.90
64634;DHT22;51043;52.406;9.690;2023-12-28T06:47:30;9.80;99.90
64634;DHT22;51043;52.406;9.690;2023-12-28T06:49:58;9.80;99.90
64634;DHT22;51043;52.406;9.690;2023-12-28T06:52:27;9.80;99.90
64634;DHT22;51043;52.406;9.690;2023-12-28T06:54:55;9.80;99.90
64634;DHT22;51043;52.406;9.690;2023-12-28T06:57:24;9.80;99.90
64634;DHT22;51043;52.406;9.690;2023-12-28T06:59:52;9.80;99.90
64634;DHT22;51043;52.406;9.690;2023-12-28T07:02:21;9.80;99.90
64634;DHT22;51043;52.406;9.690;2023-12-28T07:04:50;9.80;99.90
64634;DHT22;51043;52.406;9.690;2023-12-28T07:07:19;9.80;99.90
64634;DHT22;51043;52.406;9.690;2023-12-28T07:09:47;9.90;99.90
64634;DHT22;51043;52.406;9.690;2023-12-28T07:12:16;9.90;99.90
64634;DHT22;51043;52.406;9.690;2023-12-28T07:14:47;9.90;99.90
64634;DHT22;51043;52.406;9.690;2023-12-28T07:17:15;9.90;99.90
64634;DHT22;51043;52.406;9.690;2023-12-28T07:19:45;9.90;99.90
64634;DHT22;51043;52.406;9.690;2023-12-28T07:22:14;9.80;99.90
64634;DHT22;51043;52.406;9.690;2023-12-28T07:24:43;9.90;99.90
64634;DHT22;51043;52.406;9.690;2023-12-28T07:27:15;9.90;99.90
64634;DHT22;51043;52.406;9.690;2023-12-28T07:29:45;9.90;99.90
64634;DHT22;51043;52.406;9.690;2023-12-28T07:32:15;10.00;99.90
64634;DHT22;51043;52.406;9.690;2023-12-28T07:34:45;10.00;99.90
64634;DHT22;51043;52.406;9.690;2023-12-28T07:37:15;10.00;99.90
64634;DHT22;51043;52.406;9.690;2023-12-28T07:39:45;10.00;99.90
64634;DHT22;51043;52.406;9.690;2023-12-28T07:42:15;10.10;99.90
64634;DHT22;51043;52.406;9.690;2023-12-28T07:44:43;10.10;99.90
64634;DHT22;51043;52.406;9.690;2023-12-28T07:47:12;10.10;99.90
64634;DHT22;51043;52.406;9.690;2023-12-28T07:49:41;10.00;99.90
64634;DHT22;51043;52.406;9.690;2023-12-28T07:52:09;10.00;99.90
64634;DHT22;51043;52.406;9.690;2023-12-28T07:54:39;10.00;99.90
64634;DHT22;51043;52.406;9.690;2023-12-28T07:57:08;10.00;99.90
64634;DHT22;51043;52.406;9.690;2023-12-28T07:59:41;10.00;99.90
64634;DHT22;51043;52.406;9.690;2023-12-28T08:02:09;10.00;99.90
64634;DHT22;51043;52.406;9.690;2023-12-28T08:04:37;10.10;99.90
64634;DHT22;51043;52.406;9.690;2023-12-28T08:07:06;10.10;99.90
64634;DHT22;51043;52.406;9.690;2023-12-28T08:09:35;10.10;99.90
64634;DHT22;51043;52.406;9.690;2023-12-28T08:12:06;10.10;99.90
64634;DHT22;51043;52.406;9.690;2023-12-28T08:14:35;10.10;99.90
64634;DHT22;51043;52.406;9.690;2023-12-28T08:17:04;10.10;99.90
64634;DHT22;51043;52.406;9.690;2023-12-28T08:19:33;10.10;99.90
64634;DHT22;51043;52.406;9.690;2023-12-28T08:22:01;10.10;99.90
64634;DHT22;51043;52.406;9.690;2023-12-28T08:24:31;10.10;99.90
64634;DHT22;51043;52.406;9.690;2023-12-28T08:27:03;10.10;99.90
64634;DHT22;51043;52.406;9.690;2023-12-28T08:29:39;10.20;99.90
64634;DHT22;51043;52.406;9.690;2023-12-28T08:32:08;10.10;99.90
64634;DHT22;51043;52.406;9.690;2023-12-28T08:34:40;10.20;99.90
64634;DHT22;51043;52.406;9.690;2023-12-28T08:37:09;10.20;99.90
64634;DHT22;51043;52.406;9.690;2023-12-28T08:39:43;10.20;99.90
64634;DHT22;51043;52.406;9.690;2023-12-28T08:42:11;10.30;99.90
64634;DHT22;51043;52.406;9.690;2023-12-28T08:44:43;10.30;99.90
64634;DHT22;51043;52.406;9.690;2023-12-28T08:47:12;10.30;99.90
64634;DHT22;51043;52.406;9.690;2023-12-28T08:49:42;10.30;99.90
64634;DHT22;51043;52.406;9.690;2023-12-28T08:52:11;10.30;99.90
64634;DHT22;51043;52.406;9.690;2023-12-28T08:54:41;10.40;99.90
64634;DHT22;51043;52.406;9.690;2023-12-28T08:57:10;10.50;99.90
64634;DHT22;51043;52.406;9.690;2023-12-28T08:59:40;10.40;99.90
64634;DHT22;51043;52.406;9.690;2023-12-28T09:02:09;10.40;99.90
64634;DHT22;51043;52.406;9.690;2023-12-28T09:04:38;10.40;99.90
64634;DHT22;51043;52.406;9.690;2023-12-28T09:07:07;10.50;99.90
64634;DHT22;51043;52.406;9.690;2023-12-28T09:09:36;10.50;99.90
64634;DHT22;51043;52.406;9.690;2023-12-28T09:12:08;10.60;99.90
64634;DHT22;51043;52.406;9.690;2023-12-28T09:14:37;10.50;99.90
64634;DHT22;51043;52.406;9.690;2023-12-28T09:17:06;10.50;99.90
64634;DHT22;51043;52.406;9.690;2023-12-28T09:19:36;10.50;99.90
64634;DHT22;51043;52.406;9.690;2023-12-28T09:22:05;10.50;99.90
64634;DHT22;51043;52.406;9.690;2023-12-28T09:24:33;10.60;99.90
64634;DHT22;51043;52.406;9.690;2023-12-28T09:27:02;10.60;99.90
64634;DHT22;51043;52.406;9.690;2023-12-28T09:29:31;10.70;99.90
64634;DHT22;51043;52.406;9.690;2023-12-28T09:32:01;10.70;99.90
64634;DHT22;51043;52.406;9.690;2023-12-28T09:34:29;10.70;99.90
64634;DHT22;51043;52.406;9.690;2023-12-28T09:37:00;10.70;99.90
64634;DHT22;51043;52.406;9.690;2023-12-28T09:39:30;10.70;99.90
64634;DHT22;51043;52.406;9.690;2023-12-28T09:42:03;10.70;99.90
64634;DHT22;51043;52.406;9.690;2023-12-28T09:44:34;10.70;99.90
64634;DHT22;51043;52.406;9.690;2023-12-28T09:47:03;10.70;99.90
64634;DHT22;51043;52.406;9.690;2023-12-28T09:49:35;10.80;99.90
64634;DHT22;51043;52.406;9.690;2023-12-28T09:52:07;10.80;99.90
64634;DHT22;51043;52.406;9.690;2023-12-28T09:54:36;10.90;99.90
64634;DHT22;51043;52.406;9.690;2023-12-28T09:57:06;10.90;99.90
64634;DHT22;51043;52.406;9.690;2023-12-28T09:59:38;10.90;99.90
64634;DHT22;51043;52.406;9.690;2023-12-28T10:02:11;10.90;99.90
64634;DHT22;51043;52.406;9.690;2023-12-28T10:04:40;11.00;99.90
64634;DHT22;51043;52.406;9.690;2023-12-28T10:07:10;11.00;99.90
64634;DHT22;51043;52.406;9.690;2023-12-28T10:09:39;11.10;99.90
64634;DHT22;51043;52.406;9.690;2023-12-28T10:12:11;11.10;99.90
64634;DHT22;51043;52.406;9.690;2023-12-28T10:14:42;11.10;99.90
64634;DHT22;51043;52.406;9.690;2023-12-28T10:17:14;11.20;99.90
64634;DHT22;51043;52.406;9.690;2023-12-28T10:19:42;11.30;99.90
64634;DHT22;51043;52.406;9.690;2023-12-28T10:22:18;11.30;99.90
64634;DHT22;51043;52.406;9.690;2023-12-28T10:24:47;11.40;99.90
64634;DHT22;51043;52.406;9.690;2023-12-28T10:27:15;11.40;99.90
64634;DHT22;51043;52.406;9.690;2023-12-28T10:29:44;11.50;99.90
64634;DHT22;51043;52.406;9.690;2023-12-28T10:32:13;11.80;99.90
64634;DHT22;51043;52.406;9.690;2023-12-28T10:34:46;11.80;99.90
64634;DHT22;51043;52.406;9.690;2023-12-28T10:37:19;11.90;99.90
64634;DHT22;51043;52.406;9.690;2023-12-28T10:39:48;12.00;99.90
64634;DHT22;51043;52.406;9.690;2023-12-28T10:42:28;12.00;99.90
64634;DHT22;51043;52.406;9.690;2023-12-28T10:45:22;11.90;99.90
64634;DHT22;51043;52.406;9.690;2023-12-28T10:47:57;11.80;99.90
64634;DHT22;51043;52.406;9.690;2023-12-28T10:50:30;11.70;99.90
64634;DHT22;51043;52.406;9.690;2023-12-28T10:53:21;11.70;99.90
64634;DHT22;51043;52.406;9.690;2023-12-28T10:56:04;11.70;99.90
64634;DHT22;51043;52.406;9.690;2023-12-28T10:58:39;11.70;99.90
64634;DHT22;51043;52.406;9.690;2023-12-28T11:01:16;11.70;99.90
64634;DHT22;51043;52.406;9.690;2023-12-28T11:03:47;11.60;99.90
64634;DHT22;51043;52.406;9.690;2023-12-28T11:06:24;11.60;99.90
64634;DHT22;51043;52.406;9.690;2023-12-28T11:08:57;11.50;99.90
64634;DHT22;51043;52.406;9.690;2023-12-28T11:11:27;11.50;99.90
64634;DHT22;51043;52.406;9.690;2023-12-28T11:14:00;11.50;99.90
64634;DHT22;51043;52.406;9.690;2023-12-28T11:16:29;11.50;99.90
64634;DHT22;51043;52.406;9.690;2023-12-28T11:18:59;11.40;99.90
64634;DHT22;51043;52.406;9.690;2023-12-28T11:21:28;11.40;99.90
64634;DHT22;51043;52.406;9.690;2023-12-28T11:23:58;11.30;99.90
64634;DHT22;51043;52.406;9.690;2023-12-28T11:26:27;11.30;99.90
64634;DHT22;51043;52.406;9.690;2023-12-28T11:29:01;11.30;99.90
64634;DHT22;51043;52.406;9.690;2023-12-28T11:31:33;11.40;99.90
64634;DHT22;51043;52.406;9.690;2023-12-28T11:34:04;11.40;99.90
64634;DHT22;51043;52.406;9.690;2023-12-28T11:36:34;11.40;99.90
64634;DHT22;51043;52.406;9.690;2023-12-28T11:39:06;11.40;99.90
64634;DHT22;51043;52.406;9.690;2023-12-28T11:41:36;11.40;99.90
64634;DHT22;51043;52.406;9.690;2023-12-28T11:44:05;11.50;99.90
64634;DHT22;51043;52.406;9.690;2023-12-28T11:46:36;11.50;99.90
64634;DHT22;51043;52.406;9.690;2023-12-28T11:49:07;11.40;99.90
64634;DHT22;51043;52.406;9.690;2023-12-28T11:51:38;11.40;99.90
64634;DHT22;51043;52.406;9.690;2023-12-28T11:54:08;11.40;99.90
64634;DHT22;51043;52.406;9.690;2023-12-28T11:56:36;11.40;99.90
64634;DHT22;51043;52.406;9.690;2023-12-28T11:59:05;11.60;99.90
64634;DHT22;51043;52.406;9.690;2023-12-28T12:01:35;11.40;99.90
64634;DHT22;51043;52.406;9.690;2023-12-28T12:04:03;11.40;99.90
64634;DHT22;51043;52.406;9.690;2023-12-28T12:06:32;11.50;99.90
64634;DHT22;51043;52.406;9.690;2023-12-28T12:09:00;11.50;99.90
64634;DHT22;51043;52.406;9.690;2023-12-28T12:11:32;11.50;99.90
64634;DHT22;51043;52.406;9.690;2023-12-28T12:14:00;11.50;99.90
64634;DHT22;51043;52.406;9.690;2023-12-28T12:16:30;11.50;99.90
64634;DHT22;51043;52.406;9.690;2023-12-28T12:18:59;11.50;99.90
64634;DHT22;51043;52.406;9.690;2023-12-28T12:21:27;11.50;99.90
64634;DHT22;51043;52.406;9.690;2023-12-28T12:23:55;11.60;99.90
64634;DHT22;51043;52.406;9.690;2023-12-28T12:26:24;11.60;99.90
64634;DHT22;51043;52.406;9.690;2023-12-28T12:28:55;11.60;99.90
64634;DHT22;51043;52.406;9.690;2023-12-28T12:31:23;11.60;99.90
64634;DHT22;51043;52.406;9.690;2023-12-28T12:33:53;11.70;99.90
64634;DHT22;51043;52.406;9.690;2023-12-28T12:36:21;11.70;99.90
64634;DHT22;51043;52.406;9.690;2023-12-28T12:38:49;11.70;99.90
64634;DHT22;51043;52.406;9.690;2023-12-28T12:41:18;11.70;99.90
64634;DHT22;51043;52.406;9.690;2023-12-28T12:43:46;11.80;99.90
64634;DHT22;51043;52.406;9.690;2023-12-28T12:46:16;11.80;99.90
64634;DHT22;51043;52.406;9.690;2023-12-28T12:48:56;11.60;99.90
64634;DHT22;51043;52.406;9.690;2023-12-28T12:51:26;11.60;99.90
64634;DHT22;51043;52.406;9.690;2023-12-28T12:53:59;11.60;99.90
64634;DHT22;51043;52.406;9.690;2023-12-28T12:56:28;11.60;99.90
64634;DHT22;51043;52.406;9.690;2023-12-28T12:58:57;11.60;99.90
64634;DHT22;51043;52.406;9.690;2023-12-28T13:01:30;11.60;99.90
64634;DHT22;51043;52.406;9.690;2023-12-28T13:04:03;11.60;99.90
64634;DHT22;51043;52.406;9.690;2023-12-28T13:06:31;11.60;99.90
64634;DHT22;51043;52.406;9.690;2023-12-28T13:09:01;11.60;99.90
64634;DHT22;51043;52.406;9.690;2023-12-28T13:11:30;11.60;99.90
64634;DHT22;51043;52.406;9.690;2023-12-28T13:14:00;11.60;99.90
64634;DHT22;51043;52.406;9.690;2023-12-28T13:16:30;11.60;99.90
64634;DHT22;51043;52.406;9.690;2023-12-28T13:18:58;11.50;99.90
64634;DHT22;51043;52.406;9.690;2023-12-28T13:21:26;11.50;99.90
64634;DHT22;51043;52.406;9.690;2023-12-28T13:23:55;11.50;99.90
64634;DHT22;51043;52.406;9.690;2023-12-28T13:26:26;11.50;99.90
64634;DHT22;51043;52.406;9.690;2023-12-28T13:28:55;11.40;99.90
64634;DHT22;51043;52.406;9.690;2023-12-28T13:31:23;11.40;99.90
64634;DHT22;51043;52.406;9.690;2023-12-28T13:33:54;11.40;99.90
64634;DHT22;51043;52.406;9.690;2023-12-28T13:36:23;11.40;99.90
64634;DHT22;51043;52.406;9.690;2023-12-28T13:38:53;11.40;99.90
64634;DHT22;51043;52.406;9.690;2023-12-28T13:41:22;11.30;99.90
64634;DHT22;51043;52.406;9.690;2023-12-28T13:43:50;11.30;99.90
64634;DHT22;51043;52.406;9.690;2023-12-28T13:46:20;11.30;99.90
64634;DHT22;51043;52.406;9.690;2023-12-28T13:48:49;11.30;99.90
64634;DHT22;51043;52.406;9.690;2023-12-28T13:51:19;11.30;99.90
64634;DHT22;51043;52.406;9.690;2023-12-28T13:53:47;11.30;99.90
64634;DHT22;51043;52.406;9.690;2023-12-28T13:56:16;11.20;99.90
64634;DHT22;51043;52.406;9.690;2023-12-28T13:58:48;11.20;99.90
64634;DHT22;51043;52.406;9.690;2023-12-28T14:01:17;11.20;99.90
64634;DHT22;51043;52.406;9.690;2023-12-28T14:03:51;11.10;99.90
64634;DHT22;51043;52.406;9.690;2023-12-28T14:06:22;11.20;99.90
64634;DHT22;51043;52.406;9.690;2023-12-28T14:08:50;11.10;99.90
64634;DHT22;51043;52.406;9.690;2023-12-28T14:11:20;11.10;99.90
64634;DHT22;51043;52.406;9.690;2023-12-28T14:13:48;11.20;99.90
64634;DHT22;51043;52.406;9.690;2023-12-28T14:16:17;11.20;99.90
64634;DHT22;51043;52.406;9.690;2023-12-28T14:18:46;11.10;99.90
64634;DHT22;51043;52.406;9.690;2023-12-28T14:21:16;11.20;99.90
64634;DHT22;51043;52.406;9.690;2023-12-28T14:23:51;11.20;99.90
64634;DHT22;51043;52.406;9.690;2023-12-28T14:26:22;11.20;99.90
64634;DHT22;51043;52.406;9.690;2023-12-28T14:28:53;11.20;99.90
64634;DHT22;51043;52.406;9.690;2023-12-28T14:31:23;11.30;99.90
64634;DHT22;51043;52.406;9.690;2023-12-28T14:33:53;11.20;99.90
64634;DHT22;51043;52.406;9.690;2023-12-28T14:36:25;11.20;99.90
64634;DHT22;51043;52.406;9.690;2023-12-28T14:38:58;11.10;99.90
64634;DHT22;51043;52.406;9.690;2023-12-28T14:41:30;11.20;99.90
64634;DHT22;51043;52.406;9.690;2023-12-28T14:44:00;11.10;99.90
64634;DHT22;51043;52.406;9.690;2023-12-28T14:46:30;11.20;99.90
64634;DHT22;51043;52.406;9.690;2023-12-28T14:48:59;11.10;99.90
64634;DHT22;51043;52.406;9.690;2023-12-28T14:51:30;11.10;99.90
64634;DHT22;51043;52.406;9.690;2023-12-28T14:54:00;11.10;99.90
64634;DHT22;51043;52.406;9.690;2023-12-28T14:56:29;11.00;99.90
64634;DHT22;51043;52.406;9.690;2023-12-28T14:58:58;11.00;99.90
64634;DHT22;51043;52.406;9.690;2023-12-28T15:01:27;11.00;99.90
64634;DHT22;51043;52.406;9.690;2023-12-28T15:03:55;11.00;99.90
64634;DHT22;51043;52.406;9.690;2023-12-28T15:06:23;10.90;99.90
64634;DHT22;51043;52.406;9.690;2023-12-28T15:08:52;10.90;99.90
64634;DHT22;51043;52.406;9.690;2023-12-28T15:11:22;10.90;99.90
64634;DHT22;51043;52.406;9.690;2023-12-28T15:13:56;11.00;99.90
64634;DHT22;51043;52.406;9.690;2023-12-28T15:16:25;10.90;99.90
64634;DHT22;51043;52.406;9.690;2023-12-28T15:18:53;10.90;99.90
64634;DHT22;51043;52.406;9.690;2023-12-28T15:21:22;10.90;99.90
64634;DHT22;51043;52.406;9.690;2023-12-28T15:23:51;10.90;99.90
64634;DHT22;51043;52.406;9.690;2023-12-28T15:26:19;10.90;99.90
64634;DHT22;51043;52.406;9.690;2023-12-28T15:28:49;10.90;99.90
64634;DHT22;51043;52.406;9.690;2023-12-28T15:31:17;10.90;99.90
64634;DHT22;51043;52.406;9.690;2023-12-28T15:33:49;10.90;99.90
64634;DHT22;51043;52.406;9.690;2023-12-28T15:36:17;10.90;99.90
64634;DHT22;51043;52.406;9.690;2023-12-28T15:38:47;10.90;99.90
64634;DHT22;51043;52.406;9.690;2023-12-28T15:41:15;10.90;99.90
64634;DHT22;51043;52.406;9.690;2023-12-28T15:43:48;10.90;99.90
64634;DHT22;51043;52.406;9.690;2023-12-28T15:46:17;10.90;99.90
64634;DHT22;51043;52.406;9.690;2023-12-28T15:48:47;10.90;99.90
64634;DHT22;51043;52.406;9.690;2023-12-28T15:51:16;10.90;99.90
64634;DHT22;51043;52.406;9.690;2023-12-28T15:53:46;11.00;99.90